createdAt,value
2023-03-11T00:07:17.026Z,100349.31
2023-03-11T00:17:38.772Z,100380.75
2023-03-11T00:28:00.731Z,100436.00
2023-03-11T00:38:22.501Z,100425.81
2023-03-11T00:48:43.866Z,100424.94
2023-03-11T00:59:05.217Z,100427.50
2023-03-11T01:09:26.579Z,100458.94
2023-03-11T01:19:48.365Z,100481.91
2023-03-11T01:30:12.885Z,100499.72
2023-03-11T01:40:45.350Z,100503.97
2023-03-11T01:51:07.205Z,100517.56
2023-03-11T02:01:29.174Z,100535.38
2023-03-11T02:11:51.232Z,100555.78
2023-03-11T02:22:13.565Z,100556.66
2023-03-11T02:32:35.305Z,100566.00
2023-03-11T02:42:58.903Z,100571.94
2023-03-11T02:53:20.592Z,100575.38
2023-03-11T03:03:42.035Z,100599.13
2023-03-11T03:14:03.408Z,100610.16
2023-03-11T03:24:24.801Z,100641.56
2023-03-11T03:34:46.167Z,100639.00
2023-03-11T03:45:08.124Z,100651.75
2023-03-11T03:55:29.511Z,100644.97
2023-03-11T04:05:50.896Z,100659.41
2023-03-11T04:16:16.724Z,100670.41
2023-03-11T04:26:38.197Z,100696.72
2023-03-11T04:36:59.583Z,100704.28
2023-03-11T04:47:21.931Z,100718.72
2023-03-11T04:57:43.500Z,100732.25
2023-03-11T05:08:05.044Z,100754.25
2023-03-11T05:18:26.612Z,100771.13
2023-03-11T05:28:48.000Z,100779.53
2023-03-11T05:39:09.376Z,100797.28
2023-03-11T05:49:30.783Z,100811.59
2023-03-11T05:59:52.131Z,100825.03
2023-03-11T06:10:13.646Z,100843.63
2023-03-11T06:20:36.137Z,100862.25
2023-03-11T06:31:06.256Z,100874.06
2023-03-11T06:41:27.716Z,100891.06
2023-03-11T06:51:49.065Z,100908.09
2023-03-11T07:02:13.109Z,100920.81
2023-03-11T07:12:34.475Z,100931.06
2023-03-11T07:22:55.859Z,100952.44
2023-03-11T07:33:17.316Z,100974.59
2023-03-11T07:43:39.742Z,100991.75
2023-03-11T07:54:01.258Z,101017.41
2023-03-11T08:04:22.638Z,101031.09
2023-03-11T08:14:44.029Z,101043.06
2023-03-11T08:25:05.651Z,101055.03
2023-03-11T08:35:27.100Z,101064.53
2023-03-11T08:45:48.668Z,101075.69
2023-03-11T08:56:10.252Z,101084.22
2023-03-11T09:06:31.677Z,101097.09
2023-03-11T09:16:53.047Z,101094.75
2023-03-11T09:27:15.421Z,101088.09
2023-03-11T09:37:36.823Z,101089.97
2023-03-11T09:48:09.980Z,101108.81
2023-03-11T09:58:51.369Z,101107.19
2023-03-11T10:09:12.921Z,101124.38
2023-03-11T10:19:44.547Z,101121.06
2023-03-11T10:30:13.572Z,101105.78
2023-03-11T10:40:36.850Z,101112.69
2023-03-11T10:51:12.299Z,101117.88
2023-03-11T11:01:34.090Z,101114.56
2023-03-11T11:12:04.388Z,101118.03
2023-03-11T11:22:25.909Z,101116.34
2023-03-11T11:32:47.358Z,101106.16
2023-03-11T11:43:15.082Z,101109.59
2023-03-11T11:53:36.399Z,101102.81
2023-03-11T12:04:03.650Z,101117.31
2023-03-11T12:14:36.050Z,101116.47
2023-03-11T12:25:08.414Z,101119.00
2023-03-11T12:35:31.681Z,101117.25
2023-03-11T12:45:55.461Z,101110.44
2023-03-11T12:56:35.049Z,101120.69
2023-03-11T13:07:04.266Z,101124.91
2023-03-11T13:17:27.778Z,101119.72
2023-03-11T13:27:50.290Z,101136.00
2023-03-11T13:38:17.819Z,101124.88
2023-03-11T13:48:42.161Z,101126.56
2023-03-11T13:59:36.113Z,101137.63
2023-03-11T14:10:30.059Z,101147.00
2023-03-11T14:20:51.809Z,101150.38
2023-03-11T14:31:44.069Z,101150.31
2023-03-11T14:42:08.534Z,101145.19
2023-03-11T14:52:33.338Z,101158.00
2023-03-11T15:03:01.018Z,101160.38
2023-03-11T15:13:24.040Z,101148.47
2023-03-11T15:23:47.428Z,101145.91
2023-03-11T15:34:10.036Z,101139.97
2023-03-11T15:44:40.891Z,101150.25
2023-03-11T15:55:02.289Z,101167.41
2023-03-11T16:05:25.133Z,101194.97
2023-03-11T16:15:47.200Z,101177.88
2023-03-11T16:26:09.883Z,101171.81
2023-03-11T16:36:31.280Z,101165.88
2023-03-11T16:46:52.804Z,101167.63
2023-03-11T16:57:14.250Z,101209.53
2023-03-11T17:07:38.809Z,101223.19
2023-03-11T17:18:01.231Z,101246.22
2023-03-11T17:28:22.574Z,101269.97
2023-03-11T17:38:45.215Z,101260.44
2023-03-11T17:49:07.493Z,101250.16
2023-03-11T17:59:29.969Z,101259.56
2023-03-11T18:09:52.635Z,101268.97
2023-03-11T18:20:14.737Z,101266.41
2023-03-11T18:30:39.115Z,101262.16
2023-03-11T18:41:00.474Z,101271.56
2023-03-11T18:51:21.903Z,101272.44
2023-03-11T19:01:43.256Z,101274.97
2023-03-11T19:12:04.694Z,101274.94
2023-03-11T19:22:26.049Z,101280.06
2023-03-11T19:32:47.819Z,101286.06
2023-03-11T19:43:09.293Z,101284.31
2023-03-11T19:53:30.682Z,101288.47
2023-03-11T20:03:52.099Z,101300.31
2023-03-11T20:14:13.512Z,101302.00
2023-03-11T20:24:34.888Z,101301.94
2023-03-11T20:34:56.876Z,101313.75
2023-03-11T20:45:21.966Z,101311.19
2023-03-11T20:55:43.822Z,101317.91
2023-03-11T21:06:05.418Z,101314.53
2023-03-11T21:16:28.087Z,101328.03
2023-03-11T21:26:49.585Z,101328.78
2023-03-11T21:37:11.105Z,101320.22
2023-03-11T21:47:32.539Z,101331.25
2023-03-11T21:57:53.998Z,101330.44
2023-03-11T22:08:15.509Z,101316.00
2023-03-11T22:18:37.184Z,101334.66
2023-03-11T22:28:58.556Z,101343.03
2023-03-11T22:39:19.908Z,101341.34
2023-03-11T22:49:41.354Z,101348.22
2023-03-11T23:00:04.957Z,101354.94
2023-03-11T23:10:26.409Z,101356.50
2023-03-11T23:20:47.806Z,101362.19
2023-03-11T23:31:10.120Z,101358.59
2023-03-11T23:41:31.623Z,101371.28
2023-03-11T23:51:53.489Z,101359.28
